Troutlake, Washington
Current Conditions -  °F | °C
As of 11:39 PM on Tuesday 25 Nov 2014 (Local Time) from K4S2 Reporting Station
Overcast Overcast  
Wind Chill: 57°   Ceiling: 4800
Heat Index: 57°   Visibility: 10mi
Dew Point: 50°   Wind: 8mph
Humidity: 77%   Direction: 300°WNW
Pressure: 30.23"   Gusts: NA
Location:  45.9895°N, 121.531°W
Report Text: K4S2 260739Z AUTO 30007KT 280V340 10SM BKN048 OVC060 14/10 A3023 RMK AO2 SLP252 T01400100
Loading
Personal Weather Stations






























Interactive Weather Map New forecast layout! Learn more

10-Day Weather Forecast

Advertisements
Track Severe Weather on mobile